Detall de PIREP

Printer-friendly versionPDF version

[2013/04/29 15:13:00]
Flight IATA:CT2203
Pilot Number:012
Company ICAO:CAT
Aircraft Type:AT72/F
PAX:58
Departing Airport: LFBD
Destination Airport: LFMP
Alternate Airport:LFBO
Online: VATSIM
Route:SAU A25 AGN R17 TOU R17 MORIL
Flight Level:F190
No Slew and time accel
No pause
Crash detect
Detect pilot in Cockpit between each 30 and 45 minutes
15:13 Zero fuel Weight: 42811 Lbs, Fuel Weight: 5588 Lbs
15:13 VATSIM:LFBD 291500Z AUTO 03014KT 9999 NSC 15/M01 Q1015
15:13 VATSIM:LFMP 291500Z 31014KT 4000 -RA BR BKN028 09/07 Q1012
15:13 VOICE CATALONIAN
15:14 Parking Brakes off
15:20 Take-off
15:20 Take off Weight: 48332 Lbs
15:20 Wind: 033º @ 014 Knots Heading: 042º
15:20 POS N44º 49´ 53´´ W000º 42´ 40´´
15:20 Gear Up: 134 Knots
15:20 Flaps:1 at 134 Knots
15:20 Flaps:0 at 153 Knots
15:35 Wind:204º@014 Knots Heading: 139º Ground Speed: 228 Knots Altitude 17358 ft
15:37TOC
15:37 Fuel Weight: 4981 Lb
15:50 Wind:210º@019 Knots Heading: 129º Ground Speed: 276 Knots Altitude 19019 ft
16:00 TOD
16:00 Fuel Weight: 4361 Lb
16:05 Wind:144º@024 Knots Heading: 131º Ground Speed: 265 Knots Altitude 13398 ft
16:16 Flaps:1 at 168 Knots
16:17 Flaps:2 at 159 Knots
16:17 Gear Down: 135 Knots
16:19 TouchDown:Rate -187 ft/min Speed: 114 Knots
16:20 Wind:331º@009 Knots Heading: 327º Ground Speed: 059 Knots Altitude 147 ft
16:20 Flaps:1 at 56 Knots
16:20 Flaps:0 at 55 Knots
16:20 VATSIM:LFMP 291600Z 31014KT 9000 -RA BKN026 09/07 Q1011
16:20 Land
16:20 Wind:329º@009 Knots
16:20 Heading: 334º
16:20 Flight Duration: 01:00
16:20 Landing Weight: 46860 Lbs
16:20 POS N42º 44´ 43´´ E002º 52´ 08´´
16:22 Parking brakes on
16:22 Block to Block Duration: 01:08
16:22 Final Fuel: 4032 Lbls
16:22 Spent Fuel: 1556 Lbls
16:22 Flight Length: 231 NM
16:22 TOD Land Length: 72 NM

Exportar CSV

Powered by Drupal - Modified by Danger4k